sensor_id;sensor_type;location;lat;lon;timestamp;P1;durP1;ratioP1;P2;durP2;ratioP2
46755;SDS011;32506;52.826;-1.192;2023-04-01T00:00:18;4.22;;;2.00;;
46755;SDS011;32506;52.826;-1.192;2023-04-01T00:02:44;3.15;;;1.60;;
46755;SDS011;32506;52.826;-1.192;2023-04-01T00:05:10;3.10;;;1.70;;
46755;SDS011;32506;52.826;-1.192;2023-04-01T00:07:36;3.95;;;2.42;;
46755;SDS011;32506;52.826;-1.192;2023-04-01T00:10:06;3.42;;;2.13;;
46755;SDS011;32506;52.826;-1.192;2023-04-01T00:12:34;3.50;;;2.28;;
46755;SDS011;32506;52.826;-1.192;2023-04-01T00:14:59;3.17;;;2.22;;
46755;SDS011;32506;52.826;-1.192;2023-04-01T00:17:25;3.35;;;2.90;;
46755;SDS011;32506;52.826;-1.192;2023-04-01T00:19:51;3.65;;;2.53;;
46755;SDS011;32506;52.826;-1.192;2023-04-01T00:22:16;4.15;;;2.75;;
46755;SDS011;32506;52.826;-1.192;2023-04-01T00:24:42;3.53;;;2.60;;
46755;SDS011;32506;52.826;-1.192;2023-04-01T00:27:07;4.00;;;2.75;;
46755;SDS011;32506;52.826;-1.192;2023-04-01T00:29:33;5.25;;;3.25;;
46755;SDS011;32506;52.826;-1.192;2023-04-01T00:31:59;4.93;;;3.17;;
46755;SDS011;32506;52.826;-1.192;2023-04-01T00:34:25;4.82;;;3.08;;
46755;SDS011;32506;52.826;-1.192;2023-04-01T00:36:51;4.20;;;3.13;;
46755;SDS011;32506;52.826;-1.192;2023-04-01T00:39:17;3.72;;;2.88;;
46755;SDS011;32506;52.826;-1.192;2023-04-01T00:41:43;4.78;;;3.25;;
46755;SDS011;32506;52.826;-1.192;2023-04-01T00:44:22;5.00;;;3.30;;
46755;SDS011;32506;52.826;-1.192;2023-04-01T00:46:49;4.78;;;3.50;;
46755;SDS011;32506;52.826;-1.192;2023-04-01T00:49:15;3.80;;;2.65;;
46755;SDS011;32506;52.826;-1.192;2023-04-01T00:51:44;5.38;;;3.80;;
46755;SDS011;32506;52.826;-1.192;2023-04-01T00:54:11;3.95;;;2.50;;
46755;SDS011;32506;52.826;-1.192;2023-04-01T00:56:52;4.72;;;2.83;;
46755;SDS011;32506;52.826;-1.192;2023-04-01T00:59:24;3.45;;;2.63;;
46755;SDS011;32506;52.826;-1.192;2023-04-01T01:01:52;4.57;;;2.80;;
46755;SDS011;32506;52.826;-1.192;2023-04-01T01:04:22;5.70;;;2.50;;
46755;SDS011;32506;52.826;-1.192;2023-04-01T01:09:59;4.57;;;2.30;;
46755;SDS011;32506;52.826;-1.192;2023-04-01T01:18:06;3.33;;;1.83;;
46755;SDS011;32506;52.826;-1.192;2023-04-01T01:29:52;1.67;;;1.45;;
46755;SDS011;32506;52.826;-1.192;2023-04-01T01:35:14;3.20;;;1.70;;
46755;SDS011;32506;52.826;-1.192;2023-04-01T01:37:41;2.88;;;1.60;;
46755;SDS011;32506;52.826;-1.192;2023-04-01T01:40:10;3.28;;;1.42;;
46755;SDS011;32506;52.826;-1.192;2023-04-01T01:42:38;4.13;;;1.70;;
46755;SDS011;32506;52.826;-1.192;2023-04-01T01:45:07;2.55;;;1.65;;
46755;SDS011;32506;52.826;-1.192;2023-04-01T01:47:35;1.77;;;1.23;;
46755;SDS011;32506;52.826;-1.192;2023-04-01T01:50:01;3.17;;;1.67;;
46755;SDS011;32506;52.826;-1.192;2023-04-01T01:52:29;2.65;;;1.42;;
46755;SDS011;32506;52.826;-1.192;2023-04-01T01:54:56;1.75;;;1.15;;
46755;SDS011;32506;52.826;-1.192;2023-04-01T01:57:33;1.80;;;1.15;;
46755;SDS011;32506;52.826;-1.192;2023-04-01T02:00:10;2.13;;;1.20;;
46755;SDS011;32506;52.826;-1.192;2023-04-01T02:02:41;2.60;;;1.30;;
46755;SDS011;32506;52.826;-1.192;2023-04-01T02:05:11;2.22;;;1.13;;
46755;SDS011;32506;52.826;-1.192;2023-04-01T02:07:42;2.28;;;1.50;;
46755;SDS011;32506;52.826;-1.192;2023-04-01T02:10:13;1.58;;;1.13;;
46755;SDS011;32506;52.826;-1.192;2023-04-01T02:12:39;2.70;;;1.17;;
46755;SDS011;32506;52.826;-1.192;2023-04-01T02:15:09;2.20;;;1.50;;
46755;SDS011;32506;52.826;-1.192;2023-04-01T02:17:40;2.25;;;1.30;;
46755;SDS011;32506;52.826;-1.192;2023-04-01T02:22:41;2.60;;;1.20;;
46755;SDS011;32506;52.826;-1.192;2023-04-01T02:25:16;3.13;;;1.30;;
46755;SDS011;32506;52.826;-1.192;2023-04-01T02:27:45;2.60;;;1.40;;
46755;SDS011;32506;52.826;-1.192;2023-04-01T02:30:12;2.25;;;1.35;;
46755;SDS011;32506;52.826;-1.192;2023-04-01T02:32:40;4.90;;;1.80;;
46755;SDS011;32506;52.826;-1.192;2023-04-01T02:35:09;2.30;;;1.30;;
46755;SDS011;32506;52.826;-1.192;2023-04-01T02:37:37;2.22;;;1.40;;
46755;SDS011;32506;52.826;-1.192;2023-04-01T02:40:04;2.67;;;1.25;;
46755;SDS011;32506;52.826;-1.192;2023-04-01T02:42:34;2.10;;;1.58;;
46755;SDS011;32506;52.826;-1.192;2023-04-01T02:45:00;2.17;;;1.38;;
46755;SDS011;32506;52.826;-1.192;2023-04-01T02:47:26;2.47;;;1.60;;
46755;SDS011;32506;52.826;-1.192;2023-04-01T02:49:52;2.72;;;1.55;;
46755;SDS011;32506;52.826;-1.192;2023-04-01T02:52:23;1.90;;;1.35;;
46755;SDS011;32506;52.826;-1.192;2023-04-01T02:54:51;2.35;;;1.45;;
46755;SDS011;32506;52.826;-1.192;2023-04-01T02:57:17;3.03;;;1.73;;
46755;SDS011;32506;52.826;-1.192;2023-04-01T02:59:42;2.45;;;1.70;;
46755;SDS011;32506;52.826;-1.192;2023-04-01T03:02:08;2.90;;;1.35;;
46755;SDS011;32506;52.826;-1.192;2023-04-01T03:04:33;2.03;;;1.48;;
46755;SDS011;32506;52.826;-1.192;2023-04-01T03:06:59;2.38;;;1.80;;
46755;SDS011;32506;52.826;-1.192;2023-04-01T03:09:24;4.53;;;1.70;;
46755;SDS011;32506;52.826;-1.192;2023-04-01T03:11:50;3.20;;;1.30;;
46755;SDS011;32506;52.826;-1.192;2023-04-01T03:14:15;2.67;;;1.55;;
46755;SDS011;32506;52.826;-1.192;2023-04-01T03:16:41;3.05;;;1.50;;
46755;SDS011;32506;52.826;-1.192;2023-04-01T03:19:06;2.63;;;1.48;;
46755;SDS011;32506;52.826;-1.192;2023-04-01T03:21:32;2.22;;;1.50;;
46755;SDS011;32506;52.826;-1.192;2023-04-01T03:23:57;2.90;;;1.73;;
46755;SDS011;32506;52.826;-1.192;2023-04-01T03:26:23;3.13;;;1.63;;
46755;SDS011;32506;52.826;-1.192;2023-04-01T03:28:51;2.90;;;1.63;;
46755;SDS011;32506;52.826;-1.192;2023-04-01T03:31:17;4.15;;;2.05;;
46755;SDS011;32506;52.826;-1.192;2023-04-01T03:33:43;3.05;;;1.55;;
46755;SDS011;32506;52.826;-1.192;2023-04-01T03:36:09;2.95;;;1.92;;
46755;SDS011;32506;52.826;-1.192;2023-04-01T03:38:36;2.53;;;1.77;;
46755;SDS011;32506;52.826;-1.192;2023-04-01T03:41:02;4.70;;;2.20;;
46755;SDS011;32506;52.826;-1.192;2023-04-01T03:43:28;3.10;;;1.73;;
46755;SDS011;32506;52.826;-1.192;2023-04-01T03:45:54;3.63;;;1.60;;
46755;SDS011;32506;52.826;-1.192;2023-04-01T03:48:19;1.95;;;1.70;;
46755;SDS011;32506;52.826;-1.192;2023-04-01T03:50:45;3.58;;;2.50;;
46755;SDS011;32506;52.826;-1.192;2023-04-01T03:53:11;3.75;;;1.65;;
46755;SDS011;32506;52.826;-1.192;2023-04-01T03:55:37;4.40;;;1.75;;
46755;SDS011;32506;52.826;-1.192;2023-04-01T03:58:04;2.67;;;1.60;;
46755;SDS011;32506;52.826;-1.192;2023-04-01T04:00:30;3.92;;;1.40;;
46755;SDS011;32506;52.826;-1.192;2023-04-01T04:02:56;2.58;;;1.50;;
46755;SDS011;32506;52.826;-1.192;2023-04-01T04:05:23;3.72;;;1.92;;
46755;SDS011;32506;52.826;-1.192;2023-04-01T04:07:49;2.75;;;1.83;;
46755;SDS011;32506;52.826;-1.192;2023-04-01T04:10:15;3.85;;;1.65;;
46755;SDS011;32506;52.826;-1.192;2023-04-01T04:12:40;2.00;;;1.38;;
46755;SDS011;32506;52.826;-1.192;2023-04-01T04:15:06;2.20;;;1.30;;
46755;SDS011;32506;52.826;-1.192;2023-04-01T04:17:32;2.53;;;1.25;;
46755;SDS011;32506;52.826;-1.192;2023-04-01T04:19:57;3.05;;;1.38;;
46755;SDS011;32506;52.826;-1.192;2023-04-01T04:22:23;4.28;;;1.80;;
46755;SDS011;32506;52.826;-1.192;2023-04-01T04:24:48;2.88;;;1.70;;
46755;SDS011;32506;52.826;-1.192;2023-04-01T04:27:14;2.97;;;1.60;;
46755;SDS011;32506;52.826;-1.192;2023-04-01T04:29:39;3.72;;;1.73;;
46755;SDS011;32506;52.826;-1.192;2023-04-01T04:32:05;2.15;;;1.73;;
46755;SDS011;32506;52.826;-1.192;2023-04-01T04:34:30;2.70;;;1.70;;
46755;SDS011;32506;52.826;-1.192;2023-04-01T04:36:56;3.95;;;1.65;;
46755;SDS011;32506;52.826;-1.192;2023-04-01T04:39:22;2.72;;;1.50;;
46755;SDS011;32506;52.826;-1.192;2023-04-01T04:41:47;2.55;;;1.73;;
46755;SDS011;32506;52.826;-1.192;2023-04-01T04:44:19;2.38;;;1.40;;
46755;SDS011;32506;52.826;-1.192;2023-04-01T04:46:44;3.17;;;1.73;;
46755;SDS011;32506;52.826;-1.192;2023-04-01T04:49:10;2.38;;;1.77;;
46755;SDS011;32506;52.826;-1.192;2023-04-01T04:51:35;3.92;;;1.70;;
46755;SDS011;32506;52.826;-1.192;2023-04-01T04:54:02;3.28;;;1.80;;
46755;SDS011;32506;52.826;-1.192;2023-04-01T04:56:28;3.97;;;2.10;;
46755;SDS011;32506;52.826;-1.192;2023-04-01T04:58:54;2.63;;;2.10;;
46755;SDS011;32506;52.826;-1.192;2023-04-01T05:01:19;3.33;;;1.70;;
46755;SDS011;32506;52.826;-1.192;2023-04-01T05:03:45;2.38;;;1.55;;
46755;SDS011;32506;52.826;-1.192;2023-04-01T05:06:12;2.25;;;1.63;;
46755;SDS011;32506;52.826;-1.192;2023-04-01T05:08:39;3.58;;;2.15;;
46755;SDS011;32506;52.826;-1.192;2023-04-01T05:11:06;2.10;;;1.70;;
46755;SDS011;32506;52.826;-1.192;2023-04-01T05:13:35;4.75;;;1.70;;
46755;SDS011;32506;52.826;-1.192;2023-04-01T05:16:00;3.70;;;2.10;;
46755;SDS011;32506;52.826;-1.192;2023-04-01T05:18:26;4.85;;;1.90;;
46755;SDS011;32506;52.826;-1.192;2023-04-01T05:20:52;3.03;;;1.73;;
46755;SDS011;32506;52.826;-1.192;2023-04-01T05:23:19;5.85;;;1.98;;
46755;SDS011;32506;52.826;-1.192;2023-04-01T05:25:46;3.65;;;2.30;;
46755;SDS011;32506;52.826;-1.192;2023-04-01T05:28:16;2.70;;;1.88;;
46755;SDS011;32506;52.826;-1.192;2023-04-01T05:30:42;2.65;;;1.70;;
46755;SDS011;32506;52.826;-1.192;2023-04-01T05:33:09;3.33;;;2.20;;
46755;SDS011;32506;52.826;-1.192;2023-04-01T05:35:36;3.75;;;2.17;;
46755;SDS011;32506;52.826;-1.192;2023-04-01T05:38:02;3.42;;;2.25;;
46755;SDS011;32506;52.826;-1.192;2023-04-01T05:40:28;4.32;;;3.25;;
46755;SDS011;32506;52.826;-1.192;2023-04-01T05:42:53;5.28;;;2.30;;
46755;SDS011;32506;52.826;-1.192;2023-04-01T05:45:19;3.67;;;2.05;;
46755;SDS011;32506;52.826;-1.192;2023-04-01T05:47:44;3.50;;;2.22;;
46755;SDS011;32506;52.826;-1.192;2023-04-01T05:50:10;3.20;;;1.95;;
46755;SDS011;32506;52.826;-1.192;2023-04-01T05:52:36;3.10;;;2.38;;
46755;SDS011;32506;52.826;-1.192;2023-04-01T05:55:02;2.95;;;1.90;;
46755;SDS011;32506;52.826;-1.192;2023-04-01T05:57:28;3.50;;;1.85;;
46755;SDS011;32506;52.826;-1.192;2023-04-01T05:59:53;3.15;;;2.40;;
46755;SDS011;32506;52.826;-1.192;2023-04-01T06:02:19;2.95;;;1.80;;
46755;SDS011;32506;52.826;-1.192;2023-04-01T06:04:44;2.70;;;1.90;;
46755;SDS011;32506;52.826;-1.192;2023-04-01T06:07:13;2.85;;;2.05;;
46755;SDS011;32506;52.826;-1.192;2023-04-01T06:09:40;2.95;;;1.60;;
46755;SDS011;32506;52.826;-1.192;2023-04-01T06:25:56;2.63;;;1.90;;
46755;SDS011;32506;52.826;-1.192;2023-04-01T06:28:44;4.35;;;1.85;;
46755;SDS011;32506;52.826;-1.192;2023-04-01T06:34:28;3.63;;;2.05;;
46755;SDS011;32506;52.826;-1.192;2023-04-01T06:48:43;2.22;;;1.95;;
46755;SDS011;32506;52.826;-1.192;2023-04-01T06:51:39;3.80;;;1.50;;
46755;SDS011;32506;52.826;-1.192;2023-04-01T06:54:21;3.43;;;1.90;;
46755;SDS011;32506;52.826;-1.192;2023-04-01T06:56:54;2.35;;;1.50;;
46755;SDS011;32506;52.826;-1.192;2023-04-01T06:59:28;2.42;;;1.80;;
46755;SDS011;32506;52.826;-1.192;2023-04-01T07:01:59;3.38;;;2.10;;
46755;SDS011;32506;52.826;-1.192;2023-04-01T07:04:46;3.72;;;1.65;;
46755;SDS011;32506;52.826;-1.192;2023-04-01T07:09:48;4.53;;;1.73;;
46755;SDS011;32506;52.826;-1.192;2023-04-01T07:14:48;3.83;;;1.50;;
46755;SDS011;32506;52.826;-1.192;2023-04-01T07:17:22;1.75;;;1.30;;
46755;SDS011;32506;52.826;-1.192;2023-04-01T07:22:30;1.98;;;1.23;;
46755;SDS011;32506;52.826;-1.192;2023-04-01T07:25:22;2.35;;;1.60;;
46755;SDS011;32506;52.826;-1.192;2023-04-01T07:28:05;2.35;;;1.42;;
46755;SDS011;32506;52.826;-1.192;2023-04-01T07:30:52;3.17;;;1.40;;
46755;SDS011;32506;52.826;-1.192;2023-04-01T07:33:24;2.22;;;1.27;;
46755;SDS011;32506;52.826;-1.192;2023-04-01T07:41:32;2.72;;;1.60;;
46755;SDS011;32506;52.826;-1.192;2023-04-01T07:44:25;1.50;;;1.08;;
46755;SDS011;32506;52.826;-1.192;2023-04-01T07:46:52;1.20;;;0.90;;
46755;SDS011;32506;52.826;-1.192;2023-04-01T07:49:29;2.03;;;0.73;;
46755;SDS011;32506;52.826;-1.192;2023-04-01T07:52:08;4.18;;;1.38;;
46755;SDS011;32506;52.826;-1.192;2023-04-01T07:57:27;3.63;;;1.05;;
46755;SDS011;32506;52.826;-1.192;2023-04-01T08:00:30;1.75;;;0.80;;
46755;SDS011;32506;52.826;-1.192;2023-04-01T08:03:14;2.53;;;0.90;;
46755;SDS011;32506;52.826;-1.192;2023-04-01T08:21:51;0.73;;;0.52;;
46755;SDS011;32506;52.826;-1.192;2023-04-01T08:27:01;2.42;;;1.00;;
46755;SDS011;32506;52.826;-1.192;2023-04-01T08:29:40;1.98;;;0.80;;
46755;SDS011;32506;52.826;-1.192;2023-04-01T08:35:26;3.65;;;0.88;;
46755;SDS011;32506;52.826;-1.192;2023-04-01T08:37:56;0.93;;;0.60;;
46755;SDS011;32506;52.826;-1.192;2023-04-01T08:40:37;1.33;;;0.70;;
46755;SDS011;32506;52.826;-1.192;2023-04-01T09:21:03;2.70;;;0.88;;
46755;SDS011;32506;52.826;-1.192;2023-04-01T09:26:56;1.73;;;0.80;;
46755;SDS011;32506;52.826;-1.192;2023-04-01T09:29:50;2.45;;;1.00;;
46755;SDS011;32506;52.826;-1.192;2023-04-01T09:37:48;2.17;;;0.60;;
46755;SDS011;32506;52.826;-1.192;2023-04-01T09:45:46;2.45;;;0.75;;
46755;SDS011;32506;52.826;-1.192;2023-04-01T09:48:30;1.70;;;0.55;;
46755;SDS011;32506;52.826;-1.192;2023-04-01T10:11:07;1.50;;;0.65;;
46755;SDS011;32506;52.826;-1.192;2023-04-01T10:16:45;1.08;;;0.50;;
46755;SDS011;32506;52.826;-1.192;2023-04-01T10:36:32;4.32;;;1.08;;
46755;SDS011;32506;52.826;-1.192;2023-04-01T11:26:13;1.85;;;0.75;;
46755;SDS011;32506;52.826;-1.192;2023-04-01T11:28:51;1.17;;;0.70;;
46755;SDS011;32506;52.826;-1.192;2023-04-01T11:43:43;0.93;;;0.60;;
46755;SDS011;32506;52.826;-1.192;2023-04-01T12:09:07;2.95;;;0.88;;
46755;SDS011;32506;52.826;-1.192;2023-04-01T12:20:31;1.77;;;0.88;;
46755;SDS011;32506;52.826;-1.192;2023-04-01T12:33:27;1.67;;;0.80;;
46755;SDS011;32506;52.826;-1.192;2023-04-01T12:41:31;1.63;;;1.08;;
46755;SDS011;32506;52.826;-1.192;2023-04-01T12:47:11;1.77;;;0.68;;
46755;SDS011;32506;52.826;-1.192;2023-04-01T12:55:55;1.75;;;0.68;;
46755;SDS011;32506;52.826;-1.192;2023-04-01T13:11:40;1.77;;;0.82;;
46755;SDS011;32506;52.826;-1.192;2023-04-01T13:17:35;1.65;;;0.70;;
46755;SDS011;32506;52.826;-1.192;2023-04-01T13:25:07;0.98;;;0.60;;
46755;SDS011;32506;52.826;-1.192;2023-04-01T13:27:47;1.02;;;0.55;;
46755;SDS011;32506;52.826;-1.192;2023-04-01T13:36:03;1.33;;;0.40;;
46755;SDS011;32506;52.826;-1.192;2023-04-01T13:58:49;0.80;;;0.55;;
46755;SDS011;32506;52.826;-1.192;2023-04-01T14:01:36;0.95;;;0.50;;
46755;SDS011;32506;52.826;-1.192;2023-04-01T14:04:03;1.20;;;0.52;;
46755;SDS011;32506;52.826;-1.192;2023-04-01T14:15:06;0.95;;;0.50;;
46755;SDS011;32506;52.826;-1.192;2023-04-01T14:51:02;0.57;;;0.40;;
46755;SDS011;32506;52.826;-1.192;2023-04-01T14:53:36;0.90;;;0.40;;
46755;SDS011;32506;52.826;-1.192;2023-04-01T14:56:09;0.90;;;0.30;;
46755;SDS011;32506;52.826;-1.192;2023-04-01T15:09:11;2.30;;;0.50;;
46755;SDS011;32506;52.826;-1.192;2023-04-01T15:26:28;1.00;;;0.35;;
46755;SDS011;32506;52.826;-1.192;2023-04-01T15:37:41;1.45;;;0.25;;
46755;SDS011;32506;52.826;-1.192;2023-04-01T15:40:30;1.17;;;0.40;;
46755;SDS011;32506;52.826;-1.192;2023-04-01T15:48:55;0.63;;;0.40;;
46755;SDS011;32506;52.826;-1.192;2023-04-01T16:07:50;1.13;;;0.40;;
46755;SDS011;32506;52.826;-1.192;2023-04-01T16:13:12;2.80;;;0.68;;
46755;SDS011;32506;52.826;-1.192;2023-04-01T16:21:49;1.35;;;0.80;;
46755;SDS011;32506;52.826;-1.192;2023-04-01T16:26:55;2.17;;;0.93;;
46755;SDS011;32506;52.826;-1.192;2023-04-01T16:37:37;1.65;;;0.90;;
46755;SDS011;32506;52.826;-1.192;2023-04-01T16:42:55;1.77;;;0.57;;
46755;SDS011;32506;52.826;-1.192;2023-04-01T16:48:12;1.80;;;0.57;;
46755;SDS011;32506;52.826;-1.192;2023-04-01T16:51:00;1.33;;;0.50;;
46755;SDS011;32506;52.826;-1.192;2023-04-01T16:53:43;2.38;;;0.80;;
46755;SDS011;32506;52.826;-1.192;2023-04-01T17:01:44;1.88;;;0.75;;
46755;SDS011;32506;52.826;-1.192;2023-04-01T17:04:25;1.65;;;0.75;;
46755;SDS011;32506;52.826;-1.192;2023-04-01T17:10:04;1.92;;;0.88;;
46755;SDS011;32506;52.826;-1.192;2023-04-01T17:15:53;1.25;;;0.65;;
46755;SDS011;32506;52.826;-1.192;2023-04-01T17:18:36;1.90;;;0.52;;
46755;SDS011;32506;52.826;-1.192;2023-04-01T17:24:04;1.30;;;0.75;;
46755;SDS011;32506;52.826;-1.192;2023-04-01T17:27:05;1.50;;;0.52;;
46755;SDS011;32506;52.826;-1.192;2023-04-01T17:32:36;1.60;;;0.80;;
46755;SDS011;32506;52.826;-1.192;2023-04-01T17:35:19;2.78;;;1.00;;
46755;SDS011;32506;52.826;-1.192;2023-04-01T17:38:13;1.60;;;0.70;;
46755;SDS011;32506;52.826;-1.192;2023-04-01T18:05:43;3.20;;;1.23;;
46755;SDS011;32506;52.826;-1.192;2023-04-01T18:08:56;1.10;;;0.70;;
46755;SDS011;32506;52.826;-1.192;2023-04-01T18:11:31;2.95;;;1.00;;
46755;SDS011;32506;52.826;-1.192;2023-04-01T18:17:23;4.35;;;1.27;;
46755;SDS011;32506;52.826;-1.192;2023-04-01T18:22:28;3.03;;;1.73;;
46755;SDS011;32506;52.826;-1.192;2023-04-01T18:30:40;4.32;;;1.20;;
46755;SDS011;32506;52.826;-1.192;2023-04-01T18:33:16;3.13;;;1.10;;
46755;SDS011;32506;52.826;-1.192;2023-04-01T18:38:31;2.58;;;1.02;;
46755;SDS011;32506;52.826;-1.192;2023-04-01T18:41:25;1.33;;;0.77;;
46755;SDS011;32506;52.826;-1.192;2023-04-01T18:44:14;2.67;;;0.80;;
46755;SDS011;32506;52.826;-1.192;2023-04-01T18:49:48;3.08;;;1.10;;
46755;SDS011;32506;52.826;-1.192;2023-04-01T18:52:31;2.28;;;0.80;;
46755;SDS011;32506;52.826;-1.192;2023-04-01T18:57:26;2.20;;;1.15;;
46755;SDS011;32506;52.826;-1.192;2023-04-01T19:00:25;1.83;;;0.77;;
46755;SDS011;32506;52.826;-1.192;2023-04-01T19:05:44;2.85;;;1.15;;
46755;SDS011;32506;52.826;-1.192;2023-04-01T19:08:29;2.97;;;1.33;;
46755;SDS011;32506;52.826;-1.192;2023-04-01T19:14:11;2.90;;;1.25;;
46755;SDS011;32506;52.826;-1.192;2023-04-01T19:19:42;3.35;;;1.27;;
46755;SDS011;32506;52.826;-1.192;2023-04-01T19:26:04;2.40;;;1.15;;
46755;SDS011;32506;52.826;-1.192;2023-04-01T19:30:53;2.00;;;1.27;;
46755;SDS011;32506;52.826;-1.192;2023-04-01T19:33:36;2.85;;;1.20;;
46755;SDS011;32506;52.826;-1.192;2023-04-01T19:36:29;2.28;;;0.95;;
46755;SDS011;32506;52.826;-1.192;2023-04-01T19:41:34;1.55;;;0.85;;
46755;SDS011;32506;52.826;-1.192;2023-04-01T19:47:19;1.00;;;0.60;;
46755;SDS011;32506;52.826;-1.192;2023-04-01T19:50:14;2.40;;;1.10;;
46755;SDS011;32506;52.826;-1.192;2023-04-01T19:52:46;1.55;;;0.90;;
46755;SDS011;32506;52.826;-1.192;2023-04-01T19:58:10;2.15;;;1.10;;
46755;SDS011;32506;52.826;-1.192;2023-04-01T20:00:47;2.60;;;1.30;;
46755;SDS011;32506;52.826;-1.192;2023-04-01T20:03:25;1.83;;;1.05;;
46755;SDS011;32506;52.826;-1.192;2023-04-01T20:08:45;3.33;;;1.40;;
46755;SDS011;32506;52.826;-1.192;2023-04-01T20:17:16;2.20;;;1.15;;
46755;SDS011;32506;52.826;-1.192;2023-04-01T20:19:45;2.25;;;1.30;;
46755;SDS011;32506;52.826;-1.192;2023-04-01T20:22:28;2.40;;;1.17;;
46755;SDS011;32506;52.826;-1.192;2023-04-01T20:24:57;3.00;;;1.25;;
46755;SDS011;32506;52.826;-1.192;2023-04-01T20:27:27;2.72;;;1.48;;
46755;SDS011;32506;52.826;-1.192;2023-04-01T20:30:33;1.73;;;1.20;;
46755;SDS011;32506;52.826;-1.192;2023-04-01T20:46:53;3.67;;;1.50;;
46755;SDS011;32506;52.826;-1.192;2023-04-01T20:52:41;2.17;;;1.17;;
46755;SDS011;32506;52.826;-1.192;2023-04-01T20:58:16;2.88;;;1.10;;
46755;SDS011;32506;52.826;-1.192;2023-04-01T21:03:43;2.00;;;1.08;;
46755;SDS011;32506;52.826;-1.192;2023-04-01T21:06:14;3.47;;;1.05;;
46755;SDS011;32506;52.826;-1.192;2023-04-01T21:11:25;2.95;;;1.15;;
46755;SDS011;32506;52.826;-1.192;2023-04-01T21:33:05;1.70;;;0.75;;
46755;SDS011;32506;52.826;-1.192;2023-04-01T21:36:44;4.10;;;0.80;;
46755;SDS011;32506;52.826;-1.192;2023-04-01T21:38:54;1.58;;;0.80;;
46755;SDS011;32506;52.826;-1.192;2023-04-01T21:41:34;1.30;;;0.60;;
46755;SDS011;32506;52.826;-1.192;2023-04-01T21:44:30;1.40;;;0.80;;
46755;SDS011;32506;52.826;-1.192;2023-04-01T21:50:06;1.88;;;0.90;;
46755;SDS011;32506;52.826;-1.192;2023-04-01T21:52:57;3.33;;;0.80;;
46755;SDS011;32506;52.826;-1.192;2023-04-01T22:26:24;1.27;;;0.45;;
46755;SDS011;32506;52.826;-1.192;2023-04-01T22:31:27;2.30;;;1.15;;
46755;SDS011;32506;52.826;-1.192;2023-04-01T22:44:54;1.45;;;0.88;;
46755;SDS011;32506;52.826;-1.192;2023-04-01T22:49:34;1.67;;;0.90;;
46755;SDS011;32506;52.826;-1.192;2023-04-01T22:52:26;1.17;;;0.63;;
46755;SDS011;32506;52.826;-1.192;2023-04-01T22:55:11;1.40;;;0.52;;
46755;SDS011;32506;52.826;-1.192;2023-04-01T23:05:36;1.52;;;0.57;;
46755;SDS011;32506;52.826;-1.192;2023-04-01T23:10:54;2.17;;;0.80;;
46755;SDS011;32506;52.826;-1.192;2023-04-01T23:13:28;1.10;;;0.70;;
46755;SDS011;32506;52.826;-1.192;2023-04-01T23:15:59;0.82;;;0.57;;
46755;SDS011;32506;52.826;-1.192;2023-04-01T23:23:45;1.33;;;0.70;;
46755;SDS011;32506;52.826;-1.192;2023-04-01T23:27:17;1.45;;;0.60;;
46755;SDS011;32506;52.826;-1.192;2023-04-01T23:29:26;0.95;;;0.60;;
46755;SDS011;32506;52.826;-1.192;2023-04-01T23:32:02;1.23;;;0.60;;
46755;SDS011;32506;52.826;-1.192;2023-04-01T23:34:37;1.08;;;0.50;;
46755;SDS011;32506;52.826;-1.192;2023-04-01T23:37:04;1.23;;;0.50;;
46755;SDS011;32506;52.826;-1.192;2023-04-01T23:39:40;1.15;;;0.40;;
46755;SDS011;32506;52.826;-1.192;2023-04-01T23:44:37;2.83;;;0.65;;
46755;SDS011;32506;52.826;-1.192;2023-04-01T23:47:04;1.10;;;0.50;;
46755;SDS011;32506;52.826;-1.192;2023-04-01T23:49:36;1.45;;;0.47;;
46755;SDS011;32506;52.826;-1.192;2023-04-01T23:52:14;1.95;;;0.50;;
46755;SDS011;32506;52.826;-1.192;2023-04-01T23:54:51;0.70;;;0.40;;
46755;SDS011;32506;52.826;-1.192;2023-04-01T23:57:22;0.60;;;0.30;;
46755;SDS011;32506;52.826;-1.192;2023-04-01T23:59:59;1.42;;;0.40;;
